Time;durP1;ratioP1;P1;durP2;ratioP2;P2;SDS_P1;SDS_P2;PMS_P1;PMS_P2;Temp;Humidity;BMP_temperature;BMP_pressure;BME280_temperature;BME280_humidity;BME280_pressure;Samples;Min_cycle;Max_cycle;Signal;HPM_P1;HPM_P2
2022/05/17 00:00:41;;;;;;;28.33;16.67;;;;;;;14.40;58.02;101813.72;4998698;28;20058;-78
2022/05/17 00:03:07;;;;;;;38.55;16.98;;;;;;;14.04;58.51;101811.66;4981090;28;21199;-78
2022/05/17 00:05:33;;;;;;;32.30;17.80;;;;;;;14.00;58.99;101816.19;4968854;28;20038;-76
2022/05/17 00:07:58;;;;;;;32.47;17.08;;;;;;;14.23;58.33;101815.28;4980264;28;20074;-77
2022/05/17 00:10:25;;;;;;;35.00;18.33;;;;;;;14.30;58.33;101818.47;4963011;28;20096;-76
2022/05/17 00:12:51;;;;;;;37.60;16.73;;;;;;;14.32;57.69;101817.53;4983578;28;20058;-77
2022/05/17 00:15:18;;;;;;;34.35;17.27;;;;;;;14.48;57.45;101820.41;4984342;28;20099;-79
2022/05/17 00:17:45;;;;;;;34.15;17.50;;;;;;;14.26;57.88;101819.56;4970500;28;20054;-77
2022/05/17 00:20:11;;;;;;;33.90;15.98;;;;;;;14.34;57.87;101818.31;4995734;28;20505;-81
2022/05/17 00:22:37;;;;;;;39.80;16.02;;;;;;;14.52;57.44;101823.75;4981847;28;20042;-77
2022/05/17 00:25:04;;;;;;;34.55;15.45;;;;;;;14.59;57.30;101825.22;4964608;28;20688;-79
2022/05/17 00:27:29;;;;;;;31.05;16.60;;;;;;;14.65;56.98;101821.47;5001482;28;20038;-78
2022/05/17 00:29:55;;;;;;;25.85;14.60;;;;;;;14.61;57.14;101823.34;4967889;28;20034;-79
2022/05/17 00:32:20;;;;;;;32.83;14.73;;;;;;;14.67;57.06;101823.09;5003532;28;20038;-79
2022/05/17 00:34:46;;;;;;;30.02;14.98;;;;;;;14.73;57.32;101825.50;4980782;28;20240;-78
2022/05/17 00:37:13;;;;;;;32.88;15.15;;;;;;;14.75;57.12;101826.28;4999642;28;20143;-76
2022/05/17 00:39:39;;;;;;;24.88;14.30;;;;;;;14.68;56.67;101824.84;4986096;28;20044;-78
2022/05/17 00:42:05;;;;;;;30.17;15.20;;;;;;;14.75;56.78;101826.28;4980711;28;20418;-77
2022/05/17 00:44:42;;;;;;;28.50;13.20;;;;;;;14.81;56.87;101832.19;4984991;28;20127;-81
2022/05/17 00:47:11;;;;;;;27.83;13.48;;;;;;;14.89;56.47;101830.94;4966674;28;20030;-77
2022/05/17 00:49:45;;;;;;;24.48;14.48;;;;;;;14.88;56.66;101829.25;4980329;28;20073;-79
2022/05/17 00:52:34;;;;;;;29.40;13.50;;;;;;;14.89;56.40;101827.47;4980704;28;20046;-78
2022/05/17 00:55:06;;;;;;;22.90;12.63;;;;;;;14.83;56.31;101827.72;4966547;28;20559;-79
2022/05/17 00:57:42;;;;;;;20.73;11.32;;;;;;;14.88;56.51;101825.75;4968648;28;20307;-79
2022/05/17 01:00:12;;;;;;;23.23;13.63;;;;;;;14.93;56.60;101823.78;4985254;28;20034;-78
2022/05/17 01:02:41;;;;;;;18.42;12.43;;;;;;;14.94;56.24;101822.84;4980412;28;20053;-78
2022/05/17 01:05:07;;;;;;;27.77;14.65;;;;;;;14.92;56.24;101817.66;4965922;28;20046;-77
2022/05/17 01:07:44;;;;;;;31.65;14.68;;;;;;;14.87;56.39;101826.69;4997617;28;20057;-77
2022/05/17 01:10:11;;;;;;;24.95;12.38;;;;;;;14.87;56.36;101818.78;4965354;28;20830;-78
2022/05/17 01:12:38;;;;;;;26.38;15.43;;;;;;;14.80;55.91;101822.59;4962624;28;20755;-78
2022/05/17 01:15:06;;;;;;;25.58;13.50;;;;;;;14.79;56.38;101826.13;4983538;28;20451;-79
2022/05/17 01:17:35;;;;;;;30.90;15.18;;;;;;;14.71;56.40;101823.84;4970874;28;20041;-78
2022/05/17 01:20:06;;;;;;;27.77;13.82;;;;;;;14.74;56.25;101823.72;4982279;28;20073;-78
2022/05/17 01:22:32;;;;;;;23.83;13.15;;;;;;;14.52;56.71;101827.25;4964008;28;20038;-77
2022/05/17 01:24:58;;;;;;;28.05;15.73;;;;;;;14.49;56.81;101822.09;4996716;28;20125;-77
2022/05/17 01:27:49;;;;;;;25.65;14.73;;;;;;;14.36;56.74;101824.34;5002030;28;20085;-77
2022/05/17 01:30:21;;;;;;;28.55;15.20;;;;;;;14.28;56.73;101812.47;4977392;28;20521;-78
2022/05/17 01:32:47;;;;;;;28.85;14.85;;;;;;;14.25;56.72;101825.72;4995603;28;20058;-78
2022/05/17 01:35:13;;;;;;;30.20;15.73;;;;;;;14.20;56.91;101814.53;4986186;28;20407;-79
2022/05/17 01:37:39;;;;;;;27.33;15.07;;;;;;;14.08;57.30;101818.53;4970555;28;20118;-77
2022/05/17 01:40:05;;;;;;;32.70;15.38;;;;;;;14.03;57.33;101820.44;4984140;28;20038;-78
2022/05/17 01:42:31;;;;;;;25.42;14.50;;;;;;;13.98;57.22;101818.00;5000813;28;20074;-79
2022/05/17 01:44:56;;;;;;;20.73;12.52;;;;;;;13.98;57.46;101811.91;4982973;28;20523;-78
2022/05/17 01:47:22;;;;;;;21.50;13.57;;;;;;;13.94;57.62;101819.91;4995954;28;20034;-78
2022/05/17 01:49:50;;;;;;;22.90;14.05;;;;;;;13.98;57.47;101820.63;4995425;28;20749;-78
2022/05/17 01:52:16;;;;;;;25.08;14.27;;;;;;;13.98;57.34;101818.00;4980530;28;20104;-76
2022/05/17 01:54:41;;;;;;;28.38;14.98;;;;;;;13.99;57.33;101818.88;4965315;28;20117;-78
2022/05/17 01:57:07;;;;;;;22.98;13.00;;;;;;;13.99;57.22;101826.78;4983081;28;20037;-78
2022/05/17 01:59:33;;;;;;;27.35;15.63;;;;;;;13.89;57.20;101821.84;4964325;28;20088;-77
2022/05/17 02:01:59;;;;;;;20.65;12.32;;;;;;;13.91;56.87;101827.06;5001897;28;20034;-74
2022/05/17 02:04:25;;;;;;;25.25;14.95;;;;;;;13.80;57.29;101824.84;4980510;28;20054;-78
2022/05/17 02:06:51;;;;;;;27.63;13.48;;;;;;;13.72;57.35;101821.66;4965500;28;20034;-79
2022/05/17 02:09:16;;;;;;;26.60;14.93;;;;;;;13.64;57.59;101818.47;4978220;28;20042;-78
2022/05/17 02:11:42;;;;;;;25.63;13.63;;;;;;;13.59;57.70;101826.53;5000564;28;20027;-78
2022/05/17 02:14:08;;;;;;;23.23;12.00;;;;;;;13.58;57.37;101829.19;4962358;28;20457;-77
2022/05/17 02:16:38;;;;;;;25.15;11.13;;;;;;;13.60;57.15;101835.25;4968850;28;20093;-78
2022/05/17 02:19:06;;;;;;;18.65;13.00;;;;;;;13.63;57.21;101843.00;4964600;28;20041;-77
2022/05/17 02:21:36;;;;;;;20.92;12.27;;;;;;;13.52;57.54;101849.50;4984238;28;20118;-79
2022/05/17 02:24:02;;;;;;;21.77;13.68;;;;;;;13.57;57.18;101853.78;4994737;28;20058;-76
2022/05/17 02:26:28;;;;;;;21.80;11.90;;;;;;;13.53;57.34;101853.84;4980278;28;20033;-77
2022/05/17 02:28:54;;;;;;;17.50;11.80;;;;;;;13.48;57.30;101847.91;4957509;28;20393;-80
2022/05/17 02:31:22;;;;;;;24.52;12.98;;;;;;;13.56;57.46;101846.75;4997333;28;20038;-78
2022/05/17 02:33:47;;;;;;;30.85;15.00;;;;;;;13.65;57.38;101851.69;4965488;28;20058;-76
2022/05/17 02:36:13;;;;;;;25.58;13.32;;;;;;;13.66;57.46;101853.41;4985210;28;20710;-79
2022/05/17 02:38:39;;;;;;;29.80;13.13;;;;;;;13.69;57.31;101861.19;4962379;28;20037;-77
2022/05/17 02:41:04;;;;;;;25.98;13.18;;;;;;;13.69;57.09;101853.28;4995758;28;20498;-78
2022/05/17 02:43:30;;;;;;;26.13;13.32;;;;;;;13.61;57.03;101853.59;4985588;28;20129;-79
2022/05/17 02:45:55;;;;;;;28.50;14.02;;;;;;;13.55;57.29;101845.06;4962654;28;20746;-79
2022/05/17 02:48:22;;;;;;;24.40;12.13;;;;;;;13.53;57.56;101852.97;4967751;28;20087;-79
2022/05/17 02:50:47;;;;;;;21.88;12.63;;;;;;;13.62;57.38;101851.81;4995065;28;20049;-79
2022/05/17 02:53:13;;;;;;;19.35;11.90;;;;;;;13.68;57.56;101857.69;4999403;28;20125;-80
2022/05/17 02:55:39;;;;;;;29.52;12.80;;;;;;;13.65;57.31;101856.94;4964165;28;20030;-79
2022/05/17 02:58:04;;;;;;;34.13;13.82;;;;;;;13.69;57.33;101855.91;4977216;28;20045;-78
2022/05/17 03:00:30;;;;;;;26.95;13.25;;;;;;;13.67;57.11;101855.13;4986243;28;20911;-79
2022/05/17 03:02:57;;;;;;;21.42;12.80;;;;;;;13.61;57.54;101866.72;4965255;28;20045;-78
2022/05/17 03:05:22;;;;;;;25.48;12.38;;;;;;;13.64;57.47;101865.75;4984778;28;20129;-78
2022/05/17 03:07:48;;;;;;;24.13;11.48;;;;;;;13.65;57.10;101862.19;4962226;28;20108;-78
2022/05/17 03:10:13;;;;;;;24.60;12.40;;;;;;;13.67;57.08;101871.75;4979697;28;20177;-78
2022/05/17 03:12:40;;;;;;;20.33;10.63;;;;;;;13.67;56.93;101874.38;4978186;28;20050;-78
2022/05/17 03:15:07;;;;;;;23.55;11.18;;;;;;;13.64;56.73;101876.25;4983175;28;20192;-77
2022/05/17 03:17:32;;;;;;;22.70;10.80;;;;;;;13.60;56.68;101879.91;4965729;28;20052;-77
2022/05/17 03:19:58;;;;;;;21.60;11.18;;;;;;;13.64;56.73;101878.88;4966288;28;20026;-78
2022/05/17 03:22:23;;;;;;;18.38;11.82;;;;;;;13.62;56.99;101888.59;4962483;28;20026;-78
2022/05/17 03:24:50;;;;;;;19.25;11.40;;;;;;;13.57;56.76;101880.03;4998936;28;20033;-77
2022/05/17 03:27:19;;;;;;;25.58;13.10;;;;;;;13.52;56.96;101875.78;4964517;28;20480;-77
2022/05/17 03:29:45;;;;;;;26.38;11.52;;;;;;;13.57;56.95;101878.25;4996474;28;20887;-76
2022/05/17 03:32:11;;;;;;;21.02;10.48;;;;;;;13.58;57.05;101879.09;4994455;28;20034;-77
2022/05/17 03:34:37;;;;;;;27.77;12.70;;;;;;;13.58;56.69;101879.97;4981576;28;20046;-77
2022/05/17 03:37:03;;;;;;;27.70;11.88;;;;;;;13.61;56.99;101876.38;4996380;28;20030;-77
2022/05/17 03:39:29;;;;;;;28.25;12.20;;;;;;;13.65;56.46;101880.59;4995702;28;20041;-76
2022/05/17 03:41:54;;;;;;;18.20;10.88;;;;;;;13.60;56.40;101874.66;4994576;28;20918;-77
2022/05/17 03:44:20;;;;;;;22.02;10.50;;;;;;;13.53;56.35;101874.00;4993599;28;20038;-77
2022/05/17 03:46:45;;;;;;;22.58;10.55;;;;;;;13.47;56.66;101874.22;4963323;28;20087;-78
2022/05/17 03:49:11;;;;;;;24.00;10.38;;;;;;;13.41;56.49;101872.69;4982036;28;20157;-77
2022/05/17 03:51:37;;;;;;;19.98;11.35;;;;;;;13.37;56.84;101873.69;4980981;28;20347;-79
2022/05/17 03:54:02;;;;;;;19.80;9.50;;;;;;;13.37;56.91;101878.94;4976817;28;20595;-77
2022/05/17 03:56:28;;;;;;;24.45;11.63;;;;;;;13.31;57.03;101887.03;4999637;28;20165;-77
2022/05/17 03:58:53;;;;;;;17.90;9.93;;;;;;;13.37;57.04;101886.81;4980758;28;20054;-77
2022/05/17 04:01:19;;;;;;;24.42;10.55;;;;;;;13.34;57.07;101881.69;4981541;28;20061;-78
2022/05/17 04:03:44;;;;;;;22.10;9.85;;;;;;;13.20;57.34;101881.31;4961090;28;20141;-75
2022/05/17 04:06:10;;;;;;;21.67;11.00;;;;;;;13.35;57.13;101888.66;4986358;28;20038;-77
2022/05/17 04:08:36;;;;;;;18.48;11.10;;;;;;;13.45;57.25;101889.16;4983255;28;20042;-76
2022/05/17 04:11:06;;;;;;;19.25;10.57;;;;;;;13.45;56.79;101882.16;4970633;28;20030;-77
2022/05/17 04:13:32;;;;;;;19.27;9.68;;;;;;;13.45;56.68;101876.91;4986834;28;20046;-78
2022/05/17 04:15:58;;;;;;;17.25;9.88;;;;;;;13.57;56.62;101880.03;4984825;28;20038;-77
2022/05/17 04:18:24;;;;;;;15.75;10.02;;;;;;;13.64;56.29;101881.50;4967323;28;20038;-77
2022/05/17 04:20:50;;;;;;;15.45;9.38;;;;;;;13.69;56.40;101882.19;5000096;28;20555;-77
2022/05/17 04:23:15;;;;;;;23.15;10.45;;;;;;;13.69;56.01;101885.66;4965291;28;20871;-78
2022/05/17 04:25:41;;;;;;;25.05;10.20;;;;;;;13.66;55.70;101891.06;4999130;28;20049;-76
2022/05/17 04:28:07;;;;;;;18.52;10.82;;;;;;;13.44;56.23;101890.94;4967773;28;20054;-79
2022/05/17 04:30:33;;;;;;;23.80;12.30;;;;;;;13.21;56.79;101899.63;4987888;28;20049;-79
2022/05/17 04:33:01;;;;;;;21.88;9.68;;;;;;;13.45;56.94;101903.16;4969636;28;20050;-79
2022/05/17 04:35:27;;;;;;;13.45;8.15;;;;;;;13.66;56.68;101898.94;4987136;28;20093;-78
2022/05/17 04:37:53;;;;;;;17.52;9.98;;;;;;;13.75;56.46;101900.38;4980553;28;20128;-78
2022/05/17 04:40:19;;;;;;;16.50;10.50;;;;;;;13.82;56.13;101901.84;4962959;28;20042;-77
2022/05/17 04:42:47;;;;;;;19.77;10.88;;;;;;;13.85;55.83;101907.00;4996487;28;20038;-79
2022/05/17 04:45:14;;;;;;;17.70;10.50;;;;;;;13.86;55.68;101900.81;4968827;28;20081;-77
2022/05/17 04:47:41;;;;;;;24.92;11.75;;;;;;;13.91;55.51;101893.59;4963603;28;20049;-79
2022/05/17 04:50:07;;;;;;;19.42;10.20;;;;;;;13.90;55.70;101901.56;4984647;28;20034;-78
2022/05/17 04:52:33;;;;;;;22.13;11.80;;;;;;;13.94;55.49;101906.66;4985812;28;20081;-77
2022/05/17 04:54:58;;;;;;;19.17;11.43;;;;;;;14.30;54.37;101903.50;4985945;28;20069;-77
2022/05/17 04:57:24;;;;;;;19.33;10.25;;;;;;;14.29;54.15;101895.69;4996911;28;20599;-78
2022/05/17 04:59:49;;;;;;;17.08;8.95;;;;;;;14.77;54.40;101894.66;4999459;28;20575;-76
2022/05/17 05:02:15;;;;;;;19.25;10.88;;;;;;;16.14;51.77;101900.03;4985387;28;20037;-77
2022/05/17 05:04:40;;;;;;;16.88;10.05;;;;;;;17.83;49.41;101890.63;5003402;28;20033;-77
2022/05/17 05:07:06;;;;;;;19.95;9.48;;;;;;;17.74;47.34;101899.03;4982231;28;20702;-77
2022/05/17 05:09:32;;;;;;;12.00;8.38;;;;;;;17.90;44.39;101901.72;4989755;28;20297;-77
2022/05/17 05:11:58;;;;;;;17.30;8.77;;;;;;;19.17;45.37;101907.69;4965612;28;20455;-79
2022/05/17 05:14:24;;;;;;;17.92;7.88;;;;;;;18.34;42.22;101904.56;4999125;28;20034;-79
2022/05/17 05:16:50;;;;;;;17.45;8.80;;;;;;;16.54;47.37;101915.72;4970153;28;20060;-78
2022/05/17 05:19:16;;;;;;;13.48;8.35;;;;;;;16.16;48.15;101923.69;4983513;28;20092;-77
2022/05/17 05:21:42;;;;;;;13.13;7.18;;;;;;;16.08;47.67;101920.56;4987810;28;20029;-77
2022/05/17 05:24:10;;;;;;;21.67;8.10;;;;;;;15.71;49.23;101915.16;5003967;28;20046;-77
2022/05/17 05:26:37;;;;;;;15.93;8.73;;;;;;;15.58;50.55;101927.19;4971610;28;20090;-77
2022/05/17 05:29:03;;;;;;;15.57;7.47;;;;;;;15.74;50.32;101919.44;5000099;28;20038;-79
2022/05/17 05:31:29;;;;;;;13.90;8.25;;;;;;;15.81;50.53;101920.88;4984509;28;20207;-78
2022/05/17 05:33:55;;;;;;;13.77;7.68;;;;;;;15.56;50.45;101924.59;4961462;28;20046;-79
2022/05/17 05:36:20;;;;;;;15.73;9.52;;;;;;;15.88;50.05;101924.06;5005820;28;20031;-78
2022/05/17 05:38:46;;;;;;;14.45;8.57;;;;;;;16.26;49.06;101924.94;4981429;28;20124;-78
2022/05/17 05:41:13;;;;;;;17.50;7.95;;;;;;;17.15;47.60;101925.03;4961972;28;20113;-80
2022/05/17 05:43:39;;;;;;;13.43;7.13;;;;;;;18.23;44.92;101921.03;4964321;28;20046;-76
2022/05/17 05:46:05;;;;;;;21.30;7.70;;;;;;;20.11;39.83;101923.94;4995842;28;20042;-78
2022/05/17 05:48:32;;;;;;;14.45;7.57;;;;;;;21.61;38.96;101919.31;4967356;28;20157;-79
2022/05/17 05:51:00;;;;;;;20.85;6.88;;;;;;;23.25;33.63;101920.47;4961994;28;20531;-78
2022/05/17 05:53:25;;;;;;;16.48;5.85;;;;;;;22.53;35.93;101917.97;4964910;28;20050;-79
2022/05/17 05:55:57;;;;;;;12.38;6.10;;;;;;;22.68;36.28;101919.50;4962576;28;20048;-79
2022/05/17 05:58:24;;;;;;;16.75;5.00;;;;;;;22.98;32.95;101918.97;4968826;28;20723;-79
2022/05/17 06:00:50;;;;;;;11.90;5.25;;;;;;;23.41;33.97;101917.50;4962370;28;20405;-78
2022/05/17 06:03:15;;;;;;;6.68;4.57;;;;;;;22.18;33.96;101916.97;4980436;28;20049;-79
2022/05/17 06:05:41;;;;;;;17.25;6.47;;;;;;;21.33;36.05;101916.75;4964205;28;20038;-78
2022/05/17 06:08:12;;;;;;;14.02;6.32;;;;;;;20.82;38.71;101931.75;4982479;28;20042;-78
2022/05/17 06:10:37;;;;;;;11.75;4.88;;;;;;;22.41;37.14;101924.22;4998858;28;20041;-75
2022/05/17 06:13:03;;;;;;;7.82;4.70;;;;;;;24.08;33.15;101935.31;4959117;28;20042;-80
2022/05/17 06:15:28;;;;;;;9.30;4.70;;;;;;;24.62;32.34;101931.75;5002292;28;20038;-78
2022/05/17 06:17:54;;;;;;;9.77;3.60;;;;;;;24.72;33.99;101933.66;4965479;28;20061;-78
2022/05/17 06:20:20;;;;;;;10.45;5.15;;;;;;;24.27;30.98;101933.81;4967046;28;20038;-77
2022/05/17 06:22:46;;;;;;;12.93;4.55;;;;;;;23.40;32.80;101935.31;4983516;28;20055;-77
2022/05/17 06:25:12;;;;;;;10.70;4.25;;;;;;;22.63;35.78;101934.09;4965871;28;20451;-77
2022/05/17 06:27:37;;;;;;;9.90;4.25;;;;;;;23.56;33.85;101934.94;4981000;28;20157;-78
2022/05/17 06:30:04;;;;;;;8.27;4.35;;;;;;;23.11;33.63;101937.56;4978356;28;20034;-79
2022/05/17 06:32:29;;;;;;;14.70;5.53;;;;;;;21.44;35.44;101941.75;4984573;28;20035;-79
2022/05/17 06:34:55;;;;;;;16.25;5.32;;;;;;;20.75;37.06;101947.25;4966363;28;20421;-79
2022/05/17 06:37:20;;;;;;;16.77;3.83;;;;;;;20.86;37.96;101947.41;4965686;28;20038;-77
2022/05/17 06:39:46;;;;;;;11.43;4.75;;;;;;;21.03;36.28;101945.44;4963501;28;20125;-79
2022/05/17 06:42:11;;;;;;;16.83;5.25;;;;;;;22.95;33.84;101939.72;4978092;28;20053;-78
2022/05/17 06:44:37;;;;;;;14.25;3.50;;;;;;;24.37;31.50;101940.06;4980180;28;20038;-78
2022/05/17 06:47:04;;;;;;;13.75;4.28;;;;;;;25.76;28.45;101940.75;4962108;28;20066;-79
2022/05/17 06:49:31;;;;;;;10.93;4.38;;;;;;;24.81;32.42;101946.22;4962869;28;20050;-79
2022/05/17 06:52:00;;;;;;;15.63;4.20;;;;;;;24.98;29.62;101945.69;4989701;28;20038;-80
2022/05/17 06:54:26;;;;;;;16.20;5.20;;;;;;;22.28;33.51;101950.91;4963119;28;20042;-78
2022/05/17 06:56:52;;;;;;;19.90;4.95;;;;;;;21.24;35.81;101957.25;4966684;28;20123;-79
2022/05/17 06:59:18;;;;;;;12.90;4.10;;;;;;;20.76;36.61;101962.25;4965140;28;20118;-82
2022/05/17 07:01:49;;;;;;;10.93;4.53;;;;;;;20.50;37.56;101967.47;5002236;28;20113;-82
2022/05/17 07:04:16;;;;;;;15.30;4.47;;;;;;;19.51;39.23;101962.13;4963149;28;20038;-79
2022/05/17 07:06:41;;;;;;;17.27;5.35;;;;;;;18.34;42.34;101969.84;4967168;28;20030;-78
2022/05/17 07:09:07;;;;;;;16.50;5.07;;;;;;;18.63;42.37;101976.13;4963767;28;20765;-81
2022/05/17 07:14:18;;;;;;;14.65;5.57;;;;;;;18.73;41.95;101972.03;4987098;28;20054;-77
2022/05/17 07:16:43;;;;;;;16.30;6.72;;;;;;;18.41;42.11;101974.72;4986549;28;20098;-77
2022/05/17 07:19:11;;;;;;;12.82;4.95;;;;;;;18.54;42.35;101976.66;4966063;28;21086;-79
2022/05/17 07:21:36;;;;;;;10.30;5.68;;;;;;;18.70;42.82;101972.22;4968552;28;20026;-79
2022/05/17 07:24:02;;;;;;;17.27;6.03;;;;;;;18.24;42.07;101975.66;4964754;28;20048;-78
2022/05/17 07:26:28;;;;;;;14.88;6.68;;;;;;;18.42;42.85;101986.16;4969714;28;20034;-81
2022/05/17 07:28:53;;;;;;;14.45;6.30;;;;;;;18.11;43.07;101992.25;4999593;28;20085;-79
2022/05/17 07:31:19;;;;;;;17.42;6.43;;;;;;;18.00;43.83;101993.69;4969599;28;20101;-80
2022/05/17 07:33:44;;;;;;;17.42;6.75;;;;;;;17.29;45.94;101987.72;5001941;28;20053;-78
2022/05/17 07:36:10;;;;;;;15.40;6.65;;;;;;;17.23;45.98;101995.03;4980963;28;20034;-81
2022/05/17 07:38:36;;;;;;;16.90;7.72;;;;;;;17.16;45.74;101996.28;5001533;28;20049;-78
2022/05/17 07:41:07;;;;;;;26.63;10.23;;;;;;;17.98;45.45;102000.88;4968005;28;20033;-77
2022/05/17 07:43:34;;;;;;;13.45;7.47;;;;;;;18.87;42.29;102005.66;5000633;28;20042;-79
2022/05/17 07:45:59;;;;;;;14.82;6.20;;;;;;;18.61;42.09;102001.88;4987385;28;20030;-76
2022/05/17 07:48:25;;;;;;;18.83;7.45;;;;;;;18.53;42.24;102007.59;4967201;28;20045;-79
2022/05/17 07:50:51;;;;;;;16.00;6.70;;;;;;;19.27;41.87;102006.03;4963626;28;20583;-80
2022/05/17 07:53:19;;;;;;;12.35;6.30;;;;;;;19.90;39.94;102013.72;4983526;28;20042;-81
2022/05/17 07:55:46;;;;;;;13.38;5.70;;;;;;;21.60;35.64;102002.72;4998269;28;20034;-80
2022/05/17 07:58:13;;;;;;;11.85;4.57;;;;;;;24.43;31.95;102001.06;5003745;28;20049;-80
2022/05/17 08:00:39;;;;;;;12.40;4.93;;;;;;;25.62;29.30;102002.66;5004805;28;20030;-76
2022/05/17 08:03:06;;;;;;;12.45;5.85;;;;;;;24.47;31.94;102010.53;4965287;28;20529;-79
2022/05/17 08:05:32;;;;;;;13.55;4.90;;;;;;;26.66;28.87;102004.13;4967362;28;20041;-78
2022/05/17 08:07:58;;;;;;;8.57;4.90;;;;;;;27.71;26.70;102015.84;4969137;28;20034;-76
2022/05/17 08:10:24;;;;;;;17.15;5.32;;;;;;;26.60;26.97;102014.56;4968612;28;20037;-79
2022/05/17 08:12:51;;;;;;;15.02;5.93;;;;;;;25.74;30.04;102017.69;4967764;28;20516;-79
2022/05/17 08:15:19;;;;;;;12.27;5.10;;;;;;;24.37;30.38;102021.09;4967023;28;20049;-79
2022/05/17 08:17:46;;;;;;;15.32;4.97;;;;;;;26.13;28.36;102017.84;4997556;28;20137;-79
2022/05/17 08:20:11;;;;;;;13.02;5.93;;;;;;;25.31;31.04;102020.50;4984619;28;20184;-78
2022/05/17 08:22:42;;;;;;;12.40;5.50;;;;;;;25.23;29.65;102013.97;4971261;28;20046;-77
2022/05/17 08:27:55;;;;;;;12.88;4.90;;;;;;;27.31;26.34;102011.56;4984822;28;20049;-81
2022/05/17 08:30:24;;;;;;;16.42;5.72;;;;;;;28.30;25.23;102017.28;4985397;28;20503;-80
2022/05/17 08:35:39;;;;;;;20.20;5.50;;;;;;;29.57;26.30;102008.94;4986712;28;20091;-79
2022/05/17 08:38:05;;;;;;;14.70;5.15;;;;;;;29.25;25.59;102016.81;4986194;28;20041;-79
2022/05/17 08:40:36;;;;;;;14.00;5.47;;;;;;;27.21;28.12;102019.66;4977503;28;20077;-77
2022/05/17 08:43:26;;;;;;;10.45;3.97;;;;;;;24.80;31.68;102030.09;4985873;28;20061;-78
2022/05/17 08:46:28;;;;;;;11.52;5.20;;;;;;;22.46;34.78;102029.44;4983150;28;20150;-78
2022/05/17 08:49:12;;;;;;;15.77;5.82;;;;;;;20.94;37.60;102030.16;4985383;28;20080;-77
2022/05/17 08:51:41;;;;;;;14.63;5.10;;;;;;;21.58;37.51;102026.78;4968141;28;20030;-78
2022/05/17 08:54:09;;;;;;;10.48;5.38;;;;;;;22.64;35.91;102029.06;4961978;28;20038;-79
2022/05/17 08:56:39;;;;;;;11.40;5.25;;;;;;;23.37;34.21;102028.94;4963508;28;20530;-78
2022/05/17 08:59:06;;;;;;;16.73;5.00;;;;;;;22.53;34.38;102022.72;4961739;28;20042;-77
2022/05/17 09:01:43;;;;;;;13.18;4.22;;;;;;;22.59;35.53;102024.09;4986943;28;20038;-81
2022/05/17 09:04:46;;;;;;;14.15;5.38;;;;;;;20.81;37.70;102041.66;4961791;28;20046;-78
2022/05/17 09:07:23;;;;;;;13.15;4.22;;;;;;;20.68;39.81;102029.16;4962364;28;20412;-77
2022/05/17 09:10:07;;;;;;;13.55;4.18;;;;;;;21.24;39.21;102030.84;4981960;28;20673;-80
2022/05/17 09:12:57;;;;;;;10.27;4.75;;;;;;;20.89;38.16;102034.91;4983328;28;20729;-78
2022/05/17 09:15:23;;;;;;;19.65;5.38;;;;;;;20.73;38.33;102043.00;5004889;28;20034;-77
2022/05/17 09:17:48;;;;;;;10.38;5.47;;;;;;;20.90;37.99;102046.41;5003787;28;20048;-80
2022/05/17 09:20:18;;;;;;;11.80;4.65;;;;;;;20.85;38.83;102044.03;4985468;28;20030;-79
2022/05/17 09:22:44;;;;;;;10.77;3.75;;;;;;;21.36;38.52;102043.34;4966430;28;20034;-80
2022/05/17 09:25:26;;;;;;;11.25;5.47;;;;;;;20.60;38.22;102049.22;4950714;28;20038;-79
2022/05/17 09:27:53;;;;;;;7.80;4.70;;;;;;;20.82;37.96;102049.53;4983434;28;20034;-77
2022/05/17 09:30:21;;;;;;;8.85;4.53;;;;;;;20.94;37.62;102053.22;4985898;28;20049;-76
2022/05/17 09:32:48;;;;;;;8.52;4.22;;;;;;;20.99;38.83;102056.41;4987389;28;20496;-82
2022/05/17 09:35:17;;;;;;;15.63;4.57;;;;;;;21.95;36.08;102056.16;4966702;28;20327;-80
2022/05/17 09:37:46;;;;;;;9.55;3.95;;;;;;;21.71;36.34;102056.91;4983109;28;20237;-81
2022/05/17 09:40:24;;;;;;;12.18;4.28;;;;;;;21.03;37.96;102062.38;4967362;28;20026;-78
2022/05/17 09:42:50;;;;;;;8.38;3.67;;;;;;;22.18;36.84;102063.41;4967024;28;20108;-78
2022/05/17 09:45:18;;;;;;;14.35;5.20;;;;;;;22.87;34.94;102054.03;4963522;28;20803;-80
2022/05/17 09:47:56;;;;;;;12.60;4.80;;;;;;;23.91;34.23;102066.66;5001993;28;20500;-79
2022/05/17 09:53:14;;;;;;;8.98;3.58;;;;;;;24.49;31.35;102063.84;4984227;28;20104;-78
2022/05/17 09:55:43;;;;;;;10.95;3.97;;;;;;;23.62;32.85;102067.06;4981735;28;20082;-76
2022/05/17 09:58:36;;;;;;;12.35;4.78;;;;;;;22.84;34.47;102071.13;4982595;28;20062;-79
2022/05/17 10:01:11;;;;;;;7.32;4.30;;;;;;;23.14;34.09;102069.78;4964074;28;20062;-76
2022/05/17 10:03:40;;;;;;;11.48;4.65;;;;;;;22.77;35.04;102069.88;4973400;28;20102;-80
2022/05/17 10:06:34;;;;;;;11.65;4.95;;;;;;;22.69;36.65;102074.91;4985384;28;20038;-78
2022/05/17 10:09:06;;;;;;;9.70;5.35;;;;;;;21.79;36.19;102076.81;4993280;28;20184;-78
2022/05/17 10:11:52;;;;;;;10.43;5.20;;;;;;;21.74;37.26;102072.66;4967101;28;20022;-79
2022/05/17 10:14:44;;;;;;;11.13;4.65;;;;;;;22.23;36.46;102068.41;4963791;28;20898;-79
2022/05/17 10:17:19;;;;;;;8.43;4.07;;;;;;;23.36;35.01;102066.38;4997717;28;20034;-79
2022/05/17 10:19:53;;;;;;;9.45;4.13;;;;;;;23.86;34.13;102067.00;4981009;28;20048;-78
2022/05/17 10:22:31;;;;;;;10.63;4.28;;;;;;;25.03;33.38;102071.00;4961455;28;20452;-77
2022/05/17 10:25:01;;;;;;;13.13;3.88;;;;;;;24.81;32.15;102072.72;4984018;28;22133;-78
2022/05/17 10:27:32;;;;;;;11.75;3.80;;;;;;;23.76;34.31;102061.50;4971280;28;20373;-80
2022/05/17 10:30:30;;;;;;;16.20;4.70;;;;;;;22.93;35.79;102066.94;4983388;28;20058;-78
2022/05/17 10:33:01;;;;;;;15.20;4.90;;;;;;;24.26;33.01;102063.84;4962795;28;20548;-79
2022/05/17 10:35:34;;;;;;;9.13;4.18;;;;;;;24.45;32.25;102065.91;4967445;28;20414;-82
2022/05/17 10:38:06;;;;;;;11.82;3.72;;;;;;;25.28;30.88;102059.06;4963892;28;20061;-77
2022/05/17 10:40:35;;;;;;;8.30;3.10;;;;;;;25.38;31.83;102064.50;5000435;28;20859;-78
2022/05/17 10:43:02;;;;;;;7.85;3.08;;;;;;;25.80;29.68;102064.47;4963563;28;20442;-79
2022/05/17 10:45:33;;;;;;;10.25;4.15;;;;;;;26.08;28.66;102063.78;4971597;28;20042;-78
2022/05/17 10:48:25;;;;;;;6.68;2.63;;;;;;;26.34;29.94;102062.47;4963256;28;20042;-77
2022/05/17 10:51:26;;;;;;;7.93;3.17;;;;;;;24.88;32.34;102062.38;4970760;28;20512;-77
2022/05/17 10:54:12;;;;;;;9.48;3.22;;;;;;;25.52;29.90;102060.69;4979560;28;20054;-78
2022/05/17 10:56:47;;;;;;;8.00;2.45;;;;;;;25.54;29.48;102058.72;4962836;28;20294;-77
2022/05/17 10:59:18;;;;;;;5.90;2.28;;;;;;;24.33;31.24;102061.53;4963611;28;20038;-76
2022/05/17 11:01:56;;;;;;;;;;;;;;;24.01;32.39;102063.13;4965302;28;20026;-76
2022/05/17 11:04:59;;;;;;;9.35;3.50;;;;;;;23.27;33.57;102059.94;4966680;28;19928;-78
2022/05/17 11:07:55;;;;;;;10.20;3.03;;;;;;;23.25;35.04;102053.81;4965187;28;20042;-77
2022/05/17 11:10:44;;;;;;;7.18;2.80;;;;;;;22.84;33.61;102059.63;4964511;28;20034;-77
2022/05/17 11:13:15;;;;;;;10.38;3.75;;;;;;;22.43;35.65;102056.31;4961574;28;20060;-77
2022/05/17 11:15:51;;;;;;;11.35;3.75;;;;;;;23.36;34.69;102048.56;4963238;28;20022;-77
2022/05/17 11:18:27;;;;;;;11.07;3.10;;;;;;;24.37;31.85;102057.63;4981343;28;20554;-76
2022/05/17 11:20:59;;;;;;;11.10;3.97;;;;;;;24.22;33.57;102054.38;4979460;28;20046;-76
2022/05/17 11:23:50;;;;;;;9.75;5.20;;;;;;;24.67;31.67;102053.47;4981474;28;20049;-77
2022/05/17 11:26:24;;;;;;;9.20;3.77;;;;;;;25.19;30.44;102041.97;4966824;28;20116;-78
2022/05/17 11:29:47;;;;;;;8.20;3.75;;;;;;;25.94;29.72;102053.41;4960474;28;20133;-76
2022/05/17 11:32:25;;;;;;;6.60;2.70;;;;;;;24.77;30.80;102049.03;4942856;28;20042;-75
2022/05/17 11:34:53;;;;;;;4.70;2.97;;;;;;;25.01;30.59;102051.53;4941883;28;20097;-77